Sakura — JG5711 — position and weather

sailwx.info

Track history (hours):
 
Tides and Currents Weather Stations Pressure Air Temp Water Temp Dewpoint Dewpoint Depression Visibility Wind Speed Wind Dir Waves Ship Positions

Sakura

Last reported at 2014-Oct-20 22:33 UTC. Time now 2014-Oct-20 23:00 UTC.
Position N 35°27' E 139°39'.

Length 32 m; draft 3.6 m.

Type: Tug. MMSI: 431101178.

Date/timePositionNaut miles runAvg speedWind from/ knotsBaromVisibWave heightAir tempDewpointWater temp
2014-Oct-20 22:33N 35°27' E 139°39'0 0.0
2014-Oct-20 21:33N 35°27' E 139°39'0 0.0
2014-Oct-20 07:11N 35°27' E 139°39'0 0.0
2014-Oct-20 06:33N 35°27' E 139°39'1 1.3
2014-Oct-20 05:33N 35°27' E 139°40'1 1.3
2014-Oct-20 04:33N 35°27' E 139°39'0 0.0
2014-Oct-20 03:33N 35°27' E 139°39'1 0.7
2014-Oct-20 02:33N 35°27' E 139°39'7 6.8
2014-Oct-20 01:33N 35°31' E 139°46'1 1.2
2014-Oct-20 00:33N 35°30' E 139°47'1 1.0
2014-Oct-19 23:33N 35°29' E 139°47'1 0.6
2014-Oct-19 22:33N 35°30' E 139°46'2 1.8
2014-Oct-19 21:33N 35°28' E 139°46'6 5.9
2014-Oct-19 20:33N 35°27' E 139°39'0 0.0
2014-Oct-19 07:33N 35°27' E 139°39'0 0.0
2014-Oct-19 06:33N 35°27' E 139°39'0 0.0
2014-Oct-19 05:34N 35°27' E 139°39'2 1.5
2014-Oct-19 04:34N 35°27' E 139°40'2 1.5
2014-Oct-19 03:34N 35°27' E 139°39'0 0.0
2014-Oct-19 02:34N 35°27' E 139°39'0 0.0
2014-Oct-19 01:34N 35°27' E 139°39'0 0.0
2014-Oct-19 00:34N 35°27' E 139°39'2 1.6
2014-Oct-18 23:34N 35°27' E 139°40'2 1.9
2014-Oct-18 22:34N 35°26' E 139°43'2 2.3
2014-Oct-18 21:34N 35°28' E 139°41'1 0.6
2014-Oct-18 20:34N 35°27' E 139°41'2 1.9
2014-Oct-18 19:34N 35°27' E 139°39'0 0.0
2014-Oct-18 08:22N 35°27' E 139°39'2 2.0
2014-Oct-18 07:33N 35°26' E 139°40'1 1.1
2014-Oct-18 06:34N 35°28' E 139°40'0 0.0
2014-Oct-18 05:34N 35°28' E 139°40'0 0.0
2014-Oct-18 04:34N 35°28' E 139°40'0 0.0
2014-Oct-18 03:33N 35°28' E 139°40'2 1.5
2014-Oct-18 02:34N 35°26' E 139°41'2 1.5
2014-Oct-18 01:34N 35°28' E 139°40'0 0.0
2014-Oct-18 00:34N 35°28' E 139°40'0 0.0
2014-Oct-17 23:33N 35°28' E 139°40'2 1.5
2014-Oct-17 22:34N 35°27' E 139°42'3 2.8
2014-Oct-17 21:34N 35°27' E 139°39'3 0.2
2014-Oct-17 07:33N 35°27' E 139°42'1 0.9
2014-Oct-17 06:33N 35°26' E 139°41'1 1.3
2014-Oct-17 05:33N 35°27' E 139°42'1 1.1
2014-Oct-17 04:33N 35°26' E 139°41'2 0.6
2014-Oct-17 01:14N 35°27' E 139°39'3 3.8
2014-Oct-17 00:33N 35°28' E 139°41'3 2.6
2014-Oct-16 23:33N 35°30' E 139°44'3 3.3
2014-Oct-16 22:33N 35°27' E 139°43'3 3.3
2014-Oct-16 21:33N 35°27' E 139°39'0 0.0
2014-Oct-16 20:33N 35°27' E 139°39'3 0.3
2014-Oct-16 12:33N 35°26' E 139°41'1 0.7
2014-Oct-16 11:33N 35°26' E 139°42'0 0.2
2014-Oct-16 10:34N 35°26' E 139°42'2 1.7
2014-Oct-16 09:33N 35°24' E 139°41'1 0.5
2014-Oct-16 08:34N 35°24' E 139°41'4 4.1
2014-Oct-16 07:33N 35°28' E 139°40'0 0.0
2014-Oct-16 06:33N 35°28' E 139°40'4 3.7
2014-Oct-16 05:33N 35°30' E 139°44'2 2.4
2014-Oct-16 04:33N 35°29' E 139°47'0 0.0
2014-Oct-16 03:33N 35°29' E 139°47'6 5.6
2014-Oct-16 02:32N 35°29' E 139°54'3 3.5
2014-Oct-16 01:33N 35°28' E 139°58'16 0.9
2014-Oct-15 07:12N 35°27' E 139°39'0 0.0
2014-Oct-15 06:33N 35°27' E 139°39'0 0.0
2014-Oct-15 05:33N 35°27' E 139°39'0 0.0
2014-Oct-15 04:33N 35°27' E 139°39'0 0.0
2014-Oct-15 03:33N 35°27' E 139°39'0 0.0
2014-Oct-15 02:33N 35°27' E 139°39'0 0.0
2014-Oct-15 01:33N 35°27' E 139°39'0 0.0
2014-Oct-15 00:33N 35°27' E 139°39'0 0.0
2014-Oct-14 23:33N 35°27' E 139°39'3 2.8
2014-Oct-14 22:33N 35°28' E 139°42'2 1.7
2014-Oct-14 21:33N 35°27' E 139°40'1 0.1
2014-Oct-14 07:12N 35°27' E 139°39'3 5.3
2014-Oct-14 06:34N 35°28' E 139°43'2 1.7
2014-Oct-14 05:34N 35°27' E 139°43'3 3.4
2014-Oct-14 04:34N 35°23' E 139°45'6 6.5
2014-Oct-14 03:34N 35°27' E 139°39'0 0.0
2014-Oct-14 02:33N 35°27' E 139°39'0 0.0
2014-Oct-14 01:34N 35°27' E 139°39'0 0.0
2014-Oct-14 00:34N 35°27' E 139°39'0 0.0
2014-Oct-13 23:33N 35°27' E 139°39'0 0.0
2014-Oct-13 22:32N 35°27' E 139°39'0 0.0
2014-Oct-13 21:33N 35°27' E 139°39'0 0.0
2014-Oct-13 20:33N 35°27' E 139°39'0 0.0
2014-Oct-13 19:33N 35°27' E 139°39'0 0.0
2014-Oct-13 18:29N 35°27' E 139°39'0 0.0
2014-Oct-13 17:33N 35°27' E 139°39'0 0.0
2014-Oct-13 16:30N 35°27' E 139°39'0 0.0
2014-Oct-13 15:33N 35°27' E 139°39'0 0.0
2014-Oct-13 14:32N 35°27' E 139°39'0 0.0
2014-Oct-13 13:33N 35°27' E 139°39'0 0.0
2014-Oct-12 07:24N 35°27' E 139°39'0 0.0
2014-Oct-12 06:34N 35°27' E 139°39'0 0.0
2014-Oct-12 05:33N 35°27' E 139°39'0 0.0
2014-Oct-12 04:33N 35°27' E 139°39'2 1.7
2014-Oct-12 03:34N 35°27' E 139°41'2 1.7
2014-Oct-12 02:20N 35°28' E 139°43'0 0.4
2014-Oct-12 01:33N 35°27' E 139°43'1 0.8
2014-Oct-12 00:33N 35°27' E 139°43'0 0.0
2014-Oct-11 23:34N 35°27' E 139°43'2 2.3
2014-Oct-11 22:33N 35°25' E 139°41'1 1.1
2014-Oct-11 21:33N 35°26' E 139°42'0 0.1
2014-Oct-11 20:33N 35°26' E 139°42'0 0.0
2014-Oct-11 19:34N 35°26' E 139°42'0 0.0
2014-Oct-11 18:34N 35°26' E 139°42'0 0.0
2014-Oct-11 17:33N 35°26' E 139°42'0 0.0
2014-Oct-11 16:34N 35°26' E 139°42'0 0.0
2014-Oct-11 15:34N 35°26' E 139°42'0 0.0
2014-Oct-11 14:33N 35°26' E 139°42'0 0.0
2014-Oct-11 13:34N 35°26' E 139°42'0 0.0
2014-Oct-11 12:34N 35°26' E 139°42'0 0.0
2014-Oct-11 11:33N 35°26' E 139°42'2 2.2
2014-Oct-11 10:34N 35°24' E 139°40'2 2.2
2014-Oct-11 09:34N 35°26' E 139°42'0 0.0
2014-Oct-11 08:33N 35°26' E 139°42'1 1.1
2014-Oct-11 07:34N 35°27' E 139°41'1 1.2
2014-Oct-11 06:33N 35°27' E 139°39'1 0.8
2014-Oct-11 05:33N 35°27' E 139°40'1 0.9
2014-Oct-11 04:33N 35°27' E 139°41'2 2.3
2014-Oct-11 03:33N 35°27' E 139°39'0 0.0
2014-Oct-11 02:33N 35°27' E 139°39'0 0.0
2014-Oct-11 01:33N 35°27' E 139°39'0 0.0
2014-Oct-11 00:33N 35°27' E 139°39'0 0.0
2014-Oct-10 23:33N 35°27' E 139°39'  
Track history (hours):
 
Tides and Currents Weather Stations Pressure Air Temp Water Temp Dewpoint Dewpoint Depression Visibility Wind Speed Wind Dir Waves Ship Positions

Sakura

Last reported at 2014-Oct-20 22:33 UTC. Time now 2014-Oct-20 23:00 UTC.
Position N 35°27' E 139°39'.

Length 32 m; draft 3.6 m.

Type: Tug. MMSI: 431101178.

Date/timePositionNaut miles runAvg speedWind from/ knotsBaromVisibWave heightAir tempDewpointWater temp
2014-Oct-20 22:33N 35°27' E 139°39'0 0.0
2014-Oct-20 21:33N 35°27' E 139°39'0 0.0
2014-Oct-20 07:11N 35°27' E 139°39'0 0.0
2014-Oct-20 06:33N 35°27' E 139°39'1 1.3
2014-Oct-20 05:33N 35°27' E 139°40'1 1.3
2014-Oct-20 04:33N 35°27' E 139°39'0 0.0
2014-Oct-20 03:33N 35°27' E 139°39'1 0.7
2014-Oct-20 02:33N 35°27' E 139°39'7 6.8
2014-Oct-20 01:33N 35°31' E 139°46'1 1.2
2014-Oct-20 00:33N 35°30' E 139°47'1 1.0
2014-Oct-19 23:33N 35°29' E 139°47'1 0.6
2014-Oct-19 22:33N 35°30' E 139°46'2 1.8
2014-Oct-19 21:33N 35°28' E 139°46'6 5.9
2014-Oct-19 20:33N 35°27' E 139°39'0 0.0
2014-Oct-19 07:33N 35°27' E 139°39'0 0.0
2014-Oct-19 06:33N 35°27' E 139°39'0 0.0
2014-Oct-19 05:34N 35°27' E 139°39'2 1.5
2014-Oct-19 04:34N 35°27' E 139°40'2 1.5
2014-Oct-19 03:34N 35°27' E 139°39'0 0.0
2014-Oct-19 02:34N 35°27' E 139°39'0 0.0
2014-Oct-19 01:34N 35°27' E 139°39'0 0.0
2014-Oct-19 00:34N 35°27' E 139°39'2 1.6
2014-Oct-18 23:34N 35°27' E 139°40'2 1.9
2014-Oct-18 22:34N 35°26' E 139°43'2 2.3
2014-Oct-18 21:34N 35°28' E 139°41'1 0.6
2014-Oct-18 20:34N 35°27' E 139°41'2 1.9
2014-Oct-18 19:34N 35°27' E 139°39'0 0.0
2014-Oct-18 08:22N 35°27' E 139°39'2 2.0
2014-Oct-18 07:33N 35°26' E 139°40'1 1.1
2014-Oct-18 06:34N 35°28' E 139°40'0 0.0
2014-Oct-18 05:34N 35°28' E 139°40'0 0.0
2014-Oct-18 04:34N 35°28' E 139°40'0 0.0
2014-Oct-18 03:33N 35°28' E 139°40'2 1.5
2014-Oct-18 02:34N 35°26' E 139°41'2 1.5
2014-Oct-18 01:34N 35°28' E 139°40'0 0.0
2014-Oct-18 00:34N 35°28' E 139°40'0 0.0
2014-Oct-17 23:33N 35°28' E 139°40'2 1.5
2014-Oct-17 22:34N 35°27' E 139°42'3 2.8
2014-Oct-17 21:34N 35°27' E 139°39'3 0.2
2014-Oct-17 07:33N 35°27' E 139°42'1 0.9
2014-Oct-17 06:33N 35°26' E 139°41'1 1.3
2014-Oct-17 05:33N 35°27' E 139°42'1 1.1
2014-Oct-17 04:33N 35°26' E 139°41'2 0.6
2014-Oct-17 01:14N 35°27' E 139°39'3 3.8
2014-Oct-17 00:33N 35°28' E 139°41'3 2.6
2014-Oct-16 23:33N 35°30' E 139°44'3 3.3
2014-Oct-16 22:33N 35°27' E 139°43'3 3.3
2014-Oct-16 21:33N 35°27' E 139°39'0 0.0
2014-Oct-16 20:33N 35°27' E 139°39'3 0.3
2014-Oct-16 12:33N 35°26' E 139°41'1 0.7
2014-Oct-16 11:33N 35°26' E 139°42'0 0.2
2014-Oct-16 10:34N 35°26' E 139°42'2 1.7
2014-Oct-16 09:33N 35°24' E 139°41'1 0.5
2014-Oct-16 08:34N 35°24' E 139°41'4 4.1
2014-Oct-16 07:33N 35°28' E 139°40'0 0.0
2014-Oct-16 06:33N 35°28' E 139°40'4 3.7
2014-Oct-16 05:33N 35°30' E 139°44'2 2.4
2014-Oct-16 04:33N 35°29' E 139°47'0 0.0
2014-Oct-16 03:33N 35°29' E 139°47'6 5.6
2014-Oct-16 02:32N 35°29' E 139°54'3 3.5
2014-Oct-16 01:33N 35°28' E 139°58'16 0.9
2014-Oct-15 07:12N 35°27' E 139°39'0 0.0
2014-Oct-15 06:33N 35°27' E 139°39'0 0.0
2014-Oct-15 05:33N 35°27' E 139°39'0 0.0
2014-Oct-15 04:33N 35°27' E 139°39'0 0.0
2014-Oct-15 03:33N 35°27' E 139°39'0 0.0
2014-Oct-15 02:33N 35°27' E 139°39'0 0.0
2014-Oct-15 01:33N 35°27' E 139°39'0 0.0
2014-Oct-15 00:33N 35°27' E 139°39'0 0.0
2014-Oct-14 23:33N 35°27' E 139°39'3 2.8
2014-Oct-14 22:33N 35°28' E 139°42'2 1.7
2014-Oct-14 21:33N 35°27' E 139°40'1 0.1
2014-Oct-14 07:12N 35°27' E 139°39'3 5.3
2014-Oct-14 06:34N 35°28' E 139°43'2 1.7
2014-Oct-14 05:34N 35°27' E 139°43'3 3.4
2014-Oct-14 04:34N 35°23' E 139°45'6 6.5
2014-Oct-14 03:34N 35°27' E 139°39'0 0.0
2014-Oct-14 02:33N 35°27' E 139°39'0 0.0
2014-Oct-14 01:34N 35°27' E 139°39'0 0.0
2014-Oct-14 00:34N 35°27' E 139°39'0 0.0
2014-Oct-13 23:33N 35°27' E 139°39'0 0.0
2014-Oct-13 22:32N 35°27' E 139°39'0 0.0
2014-Oct-13 21:33N 35°27' E 139°39'0 0.0
2014-Oct-13 20:33N 35°27' E 139°39'0 0.0
2014-Oct-13 19:33N 35°27' E 139°39'0 0.0
2014-Oct-13 18:29N 35°27' E 139°39'0 0.0
2014-Oct-13 17:33N 35°27' E 139°39'0 0.0
2014-Oct-13 16:30N 35°27' E 139°39'0 0.0
2014-Oct-13 15:33N 35°27' E 139°39'0 0.0
2014-Oct-13 14:32N 35°27' E 139°39'0 0.0
2014-Oct-13 13:33N 35°27' E 139°39'0 0.0
2014-Oct-12 07:24N 35°27' E 139°39'0 0.0
2014-Oct-12 06:34N 35°27' E 139°39'0 0.0
2014-Oct-12 05:33N 35°27' E 139°39'0 0.0
2014-Oct-12 04:33N 35°27' E 139°39'2 1.7
2014-Oct-12 03:34N 35°27' E 139°41'2 1.7
2014-Oct-12 02:20N 35°28' E 139°43'0 0.4
2014-Oct-12 01:33N 35°27' E 139°43'1 0.8
2014-Oct-12 00:33N 35°27' E 139°43'0 0.0
2014-Oct-11 23:34N 35°27' E 139°43'2 2.3
2014-Oct-11 22:33N 35°25' E 139°41'1 1.1
2014-Oct-11 21:33N 35°26' E 139°42'0 0.1
2014-Oct-11 20:33N 35°26' E 139°42'0 0.0
2014-Oct-11 19:34N 35°26' E 139°42'0 0.0
2014-Oct-11 18:34N 35°26' E 139°42'0 0.0
2014-Oct-11 17:33N 35°26' E 139°42'0 0.0
2014-Oct-11 16:34N 35°26' E 139°42'0 0.0
2014-Oct-11 15:34N 35°26' E 139°42'0 0.0
2014-Oct-11 14:33N 35°26' E 139°42'0 0.0
2014-Oct-11 13:34N 35°26' E 139°42'0 0.0
2014-Oct-11 12:34N 35°26' E 139°42'0 0.0
2014-Oct-11 11:33N 35°26' E 139°42'2 2.2
2014-Oct-11 10:34N 35°24' E 139°40'2 2.2
2014-Oct-11 09:34N 35°26' E 139°42'0 0.0
2014-Oct-11 08:33N 35°26' E 139°42'1 1.1
2014-Oct-11 07:34N 35°27' E 139°41'1 1.2
2014-Oct-11 06:33N 35°27' E 139°39'1 0.8
2014-Oct-11 05:33N 35°27' E 139°40'1 0.9
2014-Oct-11 04:33N 35°27' E 139°41'2 2.3
2014-Oct-11 03:33N 35°27' E 139°39'0 0.0
2014-Oct-11 02:33N 35°27' E 139°39'0 0.0
2014-Oct-11 01:33N 35°27' E 139°39'0 0.0
2014-Oct-11 00:33N 35°27' E 139°39'0 0.0
2014-Oct-10 23:33N 35°27' E 139°39'  

Dump ship's entire track history